Time;durP1;ratioP1;P1;durP2;ratioP2;P2;SDS_P1;SDS_P2;PMS_P1;PMS_P2;Temp;Humidity;BMP_temperature;BMP_pressure;BME280_temperature;BME280_humidity;BME280_pressure;Samples;Min_cycle;Max_cycle;Signal;HPM_P1;HPM_P2
2022/09/06 00:01:16;;;;;;;4.20;3.80;;;;;;;17.64;82.03;95325.69;4992581;28;20677;-77
2022/09/06 00:03:45;;;;;;;4.40;4.00;;;;;;;17.61;82.14;95327.78;4992707;28;20201;-78
2022/09/06 00:06:13;;;;;;;4.73;3.50;;;;;;;17.60;82.01;95326.16;4992462;28;20197;-78
2022/09/06 00:08:41;;;;;;;4.70;4.30;;;;;;;17.56;82.42;95323.09;4992858;28;20193;-77
2022/09/06 00:11:08;;;;;;;7.40;4.10;;;;;;;17.54;82.49;95328.44;4992360;28;20220;-79
2022/09/06 00:13:36;;;;;;;6.53;4.10;;;;;;;17.52;82.55;95329.56;4992645;28;20181;-79
2022/09/06 00:16:08;;;;;;;6.27;4.40;;;;;;;17.47;82.63;95326.69;4992393;28;20189;-78
2022/09/06 00:18:35;;;;;;;7.07;4.47;;;;;;;17.45;82.74;95328.63;4992839;28;20196;-76
2022/09/06 00:21:04;;;;;;;5.00;4.50;;;;;;;17.42;82.91;95326.38;4992468;28;20291;-77
2022/09/06 00:23:31;;;;;;;6.57;4.20;;;;;;;17.45;82.98;95328.63;4992492;28;20201;-78
2022/09/06 00:26:07;;;;;;;7.37;4.70;;;;;;;17.24;82.74;95295.53;4992238;28;20205;-78
2022/09/06 00:28:34;;;;;;;5.10;4.30;;;;;;;17.40;82.61;95310.19;4992331;28;20185;-78
2022/09/06 00:31:08;;;;;;;3.83;3.50;;;;;;;17.41;83.22;95324.75;4991994;28;20663;-77
2022/09/06 00:33:35;;;;;;;5.67;4.40;;;;;;;17.40;83.12;95323.13;4992267;28;20196;-78
2022/09/06 00:36:04;;;;;;;6.43;4.30;;;;;;;17.40;83.10;95325.72;4992119;28;20656;-78
2022/09/06 00:38:30;;;;;;;4.30;3.90;;;;;;;17.40;83.00;95326.53;4992088;28;20272;-78
2022/09/06 00:40:57;;;;;;;5.13;4.43;;;;;;;17.39;82.70;95321.53;4992320;28;20650;-78
2022/09/06 00:43:25;;;;;;;8.47;4.93;;;;;;;17.15;83.09;95291.34;4992460;28;20196;-78
2022/09/06 00:45:53;;;;;;;5.27;4.13;;;;;;;16.98;83.70;95267.31;4992135;28;20224;-78
2022/09/06 00:48:22;;;;;;;4.37;4.03;;;;;;;17.32;84.03;95325.75;4992564;28;20299;-79
2022/09/06 00:50:51;;;;;;;5.70;4.50;;;;;;;17.29;83.87;95319.13;4992247;28;20189;-79
2022/09/06 00:53:20;;;;;;;4.73;4.33;;;;;;;17.03;83.74;95283.91;4992198;28;20657;-77
2022/09/06 00:55:47;;;;;;;5.77;4.50;;;;;;;17.26;83.80;95319.44;4992003;28;20188;-75
2022/09/06 00:58:15;;;;;;;11.83;4.53;;;;;;;17.24;84.30;95318.81;4992116;28;20203;-77
2022/09/06 01:00:43;;;;;;;9.20;4.80;;;;;;;17.26;83.77;95324.59;4991789;28;20225;-79
2022/09/06 01:03:11;;;;;;;8.87;4.47;;;;;;;17.11;83.59;95301.19;4991387;28;20283;-77
2022/09/06 01:05:48;;;;;;;8.10;4.80;;;;;;;17.16;83.86;95321.38;4991277;28;20220;-78
2022/09/06 01:08:22;;;;;;;7.43;4.63;;;;;;;17.19;83.79;95323.66;4991686;28;20193;-78
2022/09/06 01:11:13;;;;;;;8.43;4.50;;;;;;;17.30;82.76;95326.69;4991536;28;20215;-77
2022/09/06 01:13:48;;;;;;;7.27;4.27;;;;;;;17.02;83.01;95304.75;4991392;28;20200;-78
2022/09/06 01:16:25;;;;;;;5.67;4.17;;;;;;;17.08;83.80;95322.19;4991211;28;20200;-78
2022/09/06 01:19:30;;;;;;;4.40;3.60;;;;;;;16.76;84.02;95286.84;4991303;28;20630;-79
2022/09/06 01:22:09;;;;;;;4.93;4.30;;;;;;;16.55;84.15;95251.94;4950608;29;20195;-77
2022/09/06 01:25:06;;;;;;;5.20;4.57;;;;;;;16.96;84.62;95324.28;4950301;29;20408;-78
2022/09/06 01:28:00;;;;;;;6.10;4.20;;;;;;;16.89;84.52;95310.41;4874535;29;20311;-79
2022/09/06 01:30:27;;;;;;;5.57;4.57;;;;;;;16.69;84.37;95278.88;4870473;29;20268;-77
2022/09/06 01:33:00;;;;;;;4.10;3.80;;;;;;;16.93;84.66;95322.03;4874586;29;20237;-79
2022/09/06 01:35:34;;;;;;;5.33;4.03;;;;;;;16.91;84.63;95318.00;4874607;29;20834;-79
2022/09/06 01:38:03;;;;;;;4.93;4.37;;;;;;;16.90;84.65;95316.38;4874517;29;20196;-78
2022/09/06 01:40:33;;;;;;;8.50;4.40;;;;;;;16.56;84.93;95260.47;4877359;29;20206;-76
2022/09/06 01:43:05;;;;;;;5.70;4.27;;;;;;;16.88;85.23;95316.56;4877340;29;20211;-78
2022/09/06 01:45:45;;;;;;;5.73;3.93;;;;;;;16.49;85.17;95244.00;4874799;29;20753;-79
2022/09/06 01:48:24;;;;;;;5.53;4.57;;;;;;;16.38;85.12;95226.25;4874522;29;20197;-79
2022/09/06 01:51:04;;;;;;;6.93;4.60;;;;;;;16.84;85.55;95294.59;4874489;29;20674;-77
2022/09/06 01:53:56;;;;;;;4.90;4.30;;;;;;;16.80;85.68;95296.69;4874687;29;20704;-79
2022/09/06 01:56:35;;;;;;;10.67;4.50;;;;;;;16.79;85.70;95296.84;4874147;29;20223;-79
2022/09/06 01:59:20;;;;;;;6.50;4.53;;;;;;;16.80;85.50;95288.94;4882398;29;20204;-79
2022/09/06 02:01:57;;;;;;;5.70;4.40;;;;;;;16.68;85.63;95277.28;4892784;29;20200;-78
2022/09/06 02:04:29;;;;;;;4.47;4.03;;;;;;;16.79;85.21;95292.47;4949165;28;20541;-78
2022/09/06 02:07:00;;;;;;;4.93;4.53;;;;;;;16.62;84.90;95269.34;4990566;28;20204;-78
2022/09/06 02:09:32;;;;;;;4.33;3.93;;;;;;;16.77;85.53;95304.75;4990326;28;20688;-78
2022/09/06 02:12:03;;;;;;;5.10;3.83;;;;;;;16.74;85.58;95289.56;4990793;28;20225;-77
2022/09/06 02:14:34;;;;;;;7.50;4.63;;;;;;;16.51;85.56;95260.16;4990345;28;20231;-76
2022/09/06 02:17:04;;;;;;;9.43;4.33;;;;;;;16.71;85.48;95289.88;4989955;28;20579;-78
2022/09/06 02:19:36;;;;;;;5.03;4.17;;;;;;;16.62;85.63;95274.50;4990478;28;20204;-79
2022/09/06 02:22:08;;;;;;;4.70;4.30;;;;;;;16.67;85.82;95290.34;4990327;28;20668;-79
2022/09/06 02:24:39;;;;;;;4.73;4.27;;;;;;;16.66;85.85;95292.09;4990491;28;20268;-78
2022/09/06 02:27:07;;;;;;;4.77;4.23;;;;;;;16.61;85.90;95290.97;4990493;28;20205;-77
2022/09/06 02:29:35;;;;;;;4.93;4.07;;;;;;;16.58;86.09;95299.03;4989914;28;20552;-76
2022/09/06 02:32:11;;;;;;;5.07;4.20;;;;;;;16.21;86.12;95240.91;4991607;28;20217;-80
2022/09/06 02:34:39;;;;;;;8.23;4.53;;;;;;;16.56;86.06;95296.63;4991741;28;20188;-77
2022/09/06 02:37:07;;;;;;;5.70;4.90;;;;;;;16.53;86.43;95299.53;4990077;28;20216;-79
2022/09/06 02:39:34;;;;;;;5.53;4.70;;;;;;;16.28;86.70;95254.81;4990160;28;20192;-79
2022/09/06 02:42:01;;;;;;;5.33;4.17;;;;;;;16.43;86.62;95288.53;4990016;28;20664;-78
2022/09/06 02:44:28;;;;;;;5.37;4.27;;;;;;;16.48;86.49;95299.19;4990385;28;20193;-78
2022/09/06 02:46:56;;;;;;;5.70;4.20;;;;;;;16.44;86.51;95296.13;4989828;28;20657;-80
2022/09/06 02:49:23;;;;;;;5.20;3.80;;;;;;;16.22;86.47;95269.13;4989983;28;20788;-78
2022/09/06 02:51:50;;;;;;;5.97;4.43;;;;;;;16.01;86.36;95245.53;4989716;28;20600;-76
2022/09/06 02:54:16;;;;;;;6.93;4.40;;;;;;;16.43;86.37;95304.84;4990079;28;20203;-79
2022/09/06 02:56:43;;;;;;;6.37;4.37;;;;;;;16.42;86.29;95310.97;4989778;28;20197;-78
2022/09/06 02:59:10;;;;;;;4.93;4.30;;;;;;;16.39;86.18;95298.38;4989954;28;20255;-78
2022/09/06 03:01:37;;;;;;;5.03;4.23;;;;;;;16.24;86.20;95277.53;4989705;28;20196;-78
2022/09/06 03:04:05;;;;;;;6.47;3.90;;;;;;;16.37;86.20;95299.50;4990118;28;20280;-79
2022/09/06 03:06:33;;;;;;;5.43;4.47;;;;;;;15.99;86.75;95239.75;4989519;28;20200;-78
2022/09/06 03:09:00;;;;;;;5.17;4.50;;;;;;;16.34;86.83;95294.66;4989995;28;20189;-78
2022/09/06 03:11:27;;;;;;;4.97;4.50;;;;;;;16.31;86.83;95298.34;4989688;28;20196;-79
2022/09/06 03:13:54;;;;;;;5.53;3.87;;;;;;;16.29;87.04;95295.13;4990037;28;20649;-80
2022/09/06 03:16:21;;;;;;;7.43;4.57;;;;;;;16.29;86.74;95295.94;4990335;28;20197;-81
2022/09/06 03:18:48;;;;;;;4.93;4.10;;;;;;;16.16;86.94;95279.28;4989739;28;20188;-81
2022/09/06 03:21:16;;;;;;;7.90;4.43;;;;;;;16.29;86.83;95298.53;4989768;28;20553;-81
2022/09/06 03:23:44;;;;;;;5.47;4.37;;;;;;;16.28;86.90;95301.28;4989752;28;20204;-81
2022/09/06 03:26:12;;;;;;;6.17;4.03;;;;;;;15.69;87.08;95207.56;4990027;28;20605;-82
2022/09/06 03:28:39;;;;;;;4.57;4.10;;;;;;;15.83;86.95;95234.53;4992870;28;20205;-82
2022/09/06 03:31:06;;;;;;;7.67;4.10;;;;;;;15.95;87.29;95259.88;4993566;28;20221;-82
2022/09/06 03:33:32;;;;;;;4.67;4.17;;;;;;;16.23;87.20;95306.06;4993067;28;20657;-81
2022/09/06 03:36:02;;;;;;;5.07;4.50;;;;;;;16.20;87.18;95303.81;4994580;28;20193;-82
2022/09/06 03:38:33;;;;;;;5.97;4.10;;;;;;;16.25;86.90;95310.13;4993736;28;20231;-81
2022/09/06 03:41:00;;;;;;;5.33;4.20;;;;;;;15.97;86.93;95273.41;4994417;28;20224;-81
2022/09/06 03:43:27;;;;;;;6.60;4.87;;;;;;;16.17;86.92;95319.63;4992933;28;20201;-81
2022/09/06 03:45:56;;;;;;;4.43;3.87;;;;;;;16.08;87.15;95305.06;4993126;28;20201;-81
2022/09/06 03:48:24;;;;;;;5.17;4.67;;;;;;;16.10;86.98;95316.84;4992826;28;20676;-81
2022/09/06 03:50:54;;;;;;;4.07;3.67;;;;;;;16.10;87.09;95314.25;4992996;28;20193;-80
2022/09/06 03:53:21;;;;;;;9.30;4.67;;;;;;;16.11;86.88;95315.09;4992878;28;20279;-81
2022/09/06 03:55:52;;;;;;;6.63;4.70;;;;;;;16.12;86.59;95319.28;4993154;28;20192;-78
2022/09/06 03:58:20;;;;;;;6.60;4.70;;;;;;;16.12;86.82;95321.84;4992633;28;20193;-78
2022/09/06 04:00:47;;;;;;;5.03;4.50;;;;;;;16.13;86.31;95321.69;4992947;28;20193;-77
2022/09/06 04:03:15;;;;;;;5.10;4.30;;;;;;;16.08;86.83;95318.78;4993087;28;20510;-77
2022/09/06 04:05:45;;;;;;;4.97;4.47;;;;;;;16.07;87.12;95326.69;4993685;28;20673;-81
2022/09/06 04:08:12;;;;;;;5.73;4.50;;;;;;;16.06;87.28;95328.44;4993209;28;20208;-82
2022/09/06 04:10:39;;;;;;;5.87;4.63;;;;;;;16.04;87.40;95328.59;4992729;28;20385;-80
2022/09/06 04:13:08;;;;;;;5.63;4.83;;;;;;;16.06;87.25;95328.44;4992652;28;20727;-78
2022/09/06 04:15:35;;;;;;;5.13;4.60;;;;;;;16.08;87.45;95328.28;4992389;28;20231;-79
2022/09/06 04:18:02;;;;;;;5.80;4.60;;;;;;;16.12;86.66;95327.81;4992824;28;20251;-79
2022/09/06 04:20:29;;;;;;;4.97;4.17;;;;;;;16.12;86.68;95320.09;4992551;28;20208;-81
2022/09/06 04:22:56;;;;;;;7.20;5.10;;;;;;;16.12;86.39;95314.13;4993302;28;20732;-84
2022/09/06 04:25:23;;;;;;;4.97;4.50;;;;;;;15.84;86.56;95274.81;4997839;28;20197;-81
2022/09/06 04:27:49;;;;;;;6.13;4.97;;;;;;;16.10;86.70;95316.03;5000961;28;20204;-80
2022/09/06 04:30:18;;;;;;;8.60;4.97;;;;;;;16.16;86.42;95318.00;4999882;28;20639;-80
2022/09/06 04:32:45;;;;;;;6.30;4.97;;;;;;;16.20;86.28;95324.47;5000174;28;20228;-80
2022/09/06 04:35:12;;;;;;;4.90;4.40;;;;;;;16.22;85.75;95331.06;4999791;28;20276;-79
2022/09/06 04:37:39;;;;;;;7.30;4.33;;;;;;;16.22;85.41;95319.94;4998768;28;20199;-80
2022/09/06 04:40:06;;;;;;;6.20;4.40;;;;;;;16.03;85.24;95282.31;4997835;28;20193;-82
2022/09/06 04:42:33;;;;;;;5.37;4.57;;;;;;;16.28;85.55;95327.88;5003814;28;20269;-79
2022/09/06 04:45:00;;;;;;;5.47;4.77;;;;;;;16.31;85.59;95324.16;5002386;28;20213;-81
2022/09/06 04:47:28;;;;;;;7.47;5.10;;;;;;;16.33;85.75;95324.03;5000779;28;20193;-81
2022/09/06 04:49:57;;;;;;;6.47;4.53;;;;;;;16.22;85.93;95301.88;4994323;28;20193;-77
2022/09/06 04:52:24;;;;;;;7.37;4.90;;;;;;;16.16;85.81;95298.16;4992935;28;20213;-79
2022/09/06 04:54:53;;;;;;;6.53;5.37;;;;;;;16.36;85.71;95313.38;4992456;28;20201;-78
2022/09/06 04:57:20;;;;;;;5.97;5.20;;;;;;;16.39;85.82;95324.19;4992184;28;20185;-77
2022/09/06 04:59:47;;;;;;;7.33;5.50;;;;;;;16.45;85.97;95327.91;4992204;28;20252;-80
2022/09/06 05:02:16;;;;;;;5.50;4.97;;;;;;;16.39;85.64;95303.53;4992803;28;20185;-78
2022/09/06 05:04:45;;;;;;;5.80;5.00;;;;;;;16.42;86.08;95295.47;4993305;28;20193;-82
2022/09/06 05:07:13;;;;;;;9.00;5.07;;;;;;;15.47;85.69;95137.53;4992497;28;20193;-79
2022/09/06 05:09:40;;;;;;;7.07;5.40;;;;;;;16.73;85.75;95318.16;4992831;28;20196;-76
2022/09/06 05:12:07;;;;;;;6.23;5.33;;;;;;;16.87;84.60;95324.44;4992086;28;20272;-77
2022/09/06 05:14:34;;;;;;;9.43;4.90;;;;;;;16.91;84.02;95315.41;4992291;28;20225;-77
2022/09/06 05:17:00;;;;;;;6.77;5.40;;;;;;;16.96;84.35;95315.72;4991863;28;20197;-80
2022/09/06 05:19:27;;;;;;;6.70;5.00;;;;;;;17.09;83.96;95317.81;4991865;28;20575;-78
2022/09/06 05:21:55;;;;;;;6.93;4.90;;;;;;;17.29;83.43;95319.91;4991499;28;20208;-79
2022/09/06 05:24:22;;;;;;;6.00;5.20;;;;;;;17.42;83.14;95326.38;4991527;28;20189;-78
2022/09/06 05:26:49;;;;;;;5.97;4.53;;;;;;;17.63;82.26;95321.47;4991445;28;20304;-78
2022/09/06 05:29:16;;;;;;;7.10;5.13;;;;;;;17.47;81.56;95277.53;4991897;28;20196;-78
2022/09/06 05:31:46;;;;;;;8.57;4.70;;;;;;;17.30;80.67;95209.56;4991554;28;20193;-79
2022/09/06 05:34:13;;;;;;;5.93;5.10;;;;;;;18.09;79.81;95318.28;4991275;28;20220;-76
2022/09/06 05:36:40;;;;;;;6.37;4.83;;;;;;;18.05;79.29;95312.66;4991585;28;20201;-79
2022/09/06 05:39:09;;;;;;;7.47;5.43;;;;;;;17.41;78.91;95213.56;4992184;28;20276;-78
2022/09/06 05:41:35;;;;;;;5.70;5.20;;;;;;;18.13;78.82;95325.53;4992114;28;20196;-81
2022/09/06 05:44:03;;;;;;;8.57;4.93;;;;;;;18.00;78.64;95289.03;4991574;28;20196;-78
2022/09/06 05:46:30;;;;;;;5.90;5.20;;;;;;;17.97;79.22;95321.25;4991374;28;20292;-78
2022/09/06 05:48:59;;;;;;;7.70;5.40;;;;;;;18.09;79.48;95319.09;4991015;28;20673;-76
2022/09/06 05:51:27;;;;;;;9.73;6.13;;;;;;;17.95;79.44;95320.59;4991150;28;20197;-78
2022/09/06 05:53:53;;;;;;;6.57;5.53;;;;;;;18.08;79.10;95319.25;4990687;28;20224;-78
2022/09/06 05:56:23;;;;;;;7.47;6.10;;;;;;;17.68;79.79;95282.19;4990967;28;20574;-78
2022/09/06 05:58:50;;;;;;;8.73;5.30;;;;;;;18.05;79.48;95317.81;4991069;28;20185;-81
2022/09/06 06:01:20;;;;;;;6.73;5.73;;;;;;;18.24;78.70;95309.63;4991489;28;20200;-80
2022/09/06 06:03:51;;;;;;;7.40;5.33;;;;;;;18.56;77.54;95305.22;4991980;28;20274;-81
2022/09/06 06:06:18;;;;;;;6.47;5.77;;;;;;;18.66;77.16;95313.59;4991211;28;20280;-81
2022/09/06 06:08:45;;;;;;;8.80;5.77;;;;;;;18.76;76.35;95319.38;4990982;28;20197;-79
2022/09/06 06:11:15;;;;;;;9.17;5.80;;;;;;;18.76;76.40;95311.63;4991469;28;20196;-84
2022/09/06 06:13:44;;;;;;;6.27;5.43;;;;;;;18.91;75.71;95306.50;4991505;28;20231;-80
2022/09/06 06:16:13;;;;;;;8.53;5.40;;;;;;;19.18;75.71;95309.53;4991433;28;20197;-80
2022/09/06 06:18:40;;;;;;;6.23;5.07;;;;;;;19.42;74.32;95309.28;4991341;28;20622;-80
2022/09/06 06:21:12;;;;;;;6.13;4.50;;;;;;;19.74;74.85;95297.00;4990584;28;20193;-78
2022/09/06 06:23:40;;;;;;;8.10;5.20;;;;;;;20.13;72.82;95304.50;4990702;28;20263;-81
2022/09/06 06:26:10;;;;;;;5.97;5.27;;;;;;;20.29;71.36;95273.09;4990768;28;20334;-80
2022/09/06 06:28:40;;;;;;;9.27;5.50;;;;;;;20.59;69.91;95303.41;4992261;28;20308;-82
2022/09/06 06:31:10;;;;;;;9.80;5.60;;;;;;;20.64;70.18;95270.69;4991539;28;20193;-79
2022/09/06 06:33:38;;;;;;;5.60;4.50;;;;;;;20.81;69.33;95271.22;4990823;28;20260;-82
2022/09/06 06:36:07;;;;;;;5.95;5.35;;;;;;;21.18;67.52;95298.75;4989993;28;20554;-81
2022/09/06 06:38:38;;;;;;;10.50;4.80;;;;;;;21.39;68.24;95299.75;4990378;28;20676;-81
2022/09/06 06:41:06;;;;;;;5.90;4.83;;;;;;;21.63;67.11;95288.06;4990384;28;20240;-82
2022/09/06 06:43:36;;;;;;;9.50;5.20;;;;;;;21.57;65.56;95268.00;4990629;28;20196;-80
2022/09/06 06:46:04;;;;;;;9.23;5.20;;;;;;;21.79;65.06;95275.53;4990862;28;20768;-81
2022/09/06 06:48:32;;;;;;;8.23;5.45;;;;;;;22.11;64.75;95293.34;4990952;28;20193;-80
2022/09/06 06:50:59;;;;;;;6.65;5.85;;;;;;;22.19;62.79;95283.59;4990596;28;20220;-81
2022/09/06 06:53:26;;;;;;;9.90;6.43;;;;;;;22.39;63.84;95303.69;4991121;28;20247;-80
2022/09/06 06:55:53;;;;;;;7.15;6.00;;;;;;;22.35;62.81;95297.25;4990143;28;20681;-78
2022/09/06 06:58:23;;;;;;;8.77;5.82;;;;;;;22.38;62.37;95295.06;4990622;28;20632;-79
2022/09/06 07:00:50;;;;;;;5.93;5.32;;;;;;;22.23;62.79;95289.97;4990724;28;20200;-79
2022/09/06 07:03:17;;;;;;;6.18;5.03;;;;;;;22.36;63.38;95298.84;4994315;28;20189;-77
2022/09/06 07:05:45;;;;;;;9.27;5.72;;;;;;;22.47;63.68;95295.69;4994577;28;20235;-78
2022/09/06 07:08:14;;;;;;;6.55;5.78;;;;;;;22.53;62.38;95297.50;4994713;28;20263;-78
2022/09/06 07:10:45;;;;;;;10.18;5.32;;;;;;;22.51;62.41;95307.31;4994662;28;20687;-80
2022/09/06 07:13:12;;;;;;;11.25;5.88;;;;;;;22.45;62.02;95308.94;4995419;28;20229;-77
2022/09/06 07:15:39;;;;;;;7.82;5.32;;;;;;;21.58;62.12;95157.69;4994908;28;20220;-78
2022/09/06 07:18:06;;;;;;;7.45;5.78;;;;;;;22.57;62.06;95310.94;4994807;28;20569;-80
2022/09/06 07:20:33;;;;;;;8.57;5.32;;;;;;;22.72;61.56;95311.59;4994355;28;20192;-77
2022/09/06 07:23:03;;;;;;;5.80;5.05;;;;;;;22.61;61.04;95284.28;4993934;28;20224;-79
2022/09/06 07:25:30;;;;;;;6.65;4.95;;;;;;;22.94;60.75;95310.44;4994204;28;20189;-78
2022/09/06 07:28:00;;;;;;;7.55;5.68;;;;;;;22.92;59.91;95290.78;4993917;28;20591;-78
2022/09/06 07:30:27;;;;;;;7.30;4.28;;;;;;;23.15;59.75;95291.19;4994193;28;20280;-77
2022/09/06 07:32:54;;;;;;;6.45;4.90;;;;;;;23.35;57.80;95314.66;4993522;28;20201;-77
2022/09/06 07:35:21;;;;;;;9.10;5.03;;;;;;;22.89;58.49;95252.03;4994189;28;20207;-77
2022/09/06 07:37:55;;;;;;;7.15;5.03;;;;;;;23.43;58.52;95317.06;4993869;28;20197;-77
2022/09/06 07:40:24;;;;;;;6.45;4.93;;;;;;;23.55;58.77;95314.66;4993990;28;20197;-77
2022/09/06 07:42:50;;;;;;;6.68;4.70;;;;;;;23.73;58.08;95312.25;4993944;28;20181;-77
2022/09/06 07:45:17;;;;;;;5.45;4.55;;;;;;;23.97;58.44;95310.78;4993682;28;20569;-77
2022/09/06 07:47:44;;;;;;;7.78;5.32;;;;;;;24.22;56.52;95308.28;4993177;28;20193;-79
2022/09/06 07:50:11;;;;;;;7.80;5.13;;;;;;;24.49;55.52;95311.63;4993534;28;20189;-79
2022/09/06 07:52:38;;;;;;;7.53;5.15;;;;;;;24.72;54.95;95313.69;4993195;28;20189;-77
2022/09/06 07:55:06;;;;;;;6.63;5.25;;;;;;;24.87;55.07;95304.75;4992970;28;20704;-77
2022/09/06 07:57:34;;;;;;;8.27;4.90;;;;;;;25.05;54.41;95301.44;4993292;28;20569;-78
2022/09/06 08:00:02;;;;;;;7.85;4.70;;;;;;;25.21;54.11;95301.69;4993137;28;20195;-77
2022/09/06 08:02:29;;;;;;;6.25;4.40;;;;;;;25.34;53.82;95292.13;4993904;28;20196;-77
2022/09/06 08:04:56;;;;;;;4.80;4.30;;;;;;;25.60;52.69;95302.38;4993094;28;20276;-77
2022/09/06 08:07:24;;;;;;;4.88;4.47;;;;;;;25.60;52.85;95293.72;4992862;28;20192;-77
2022/09/06 08:09:51;;;;;;;8.68;4.72;;;;;;;25.67;52.53;95297.09;4993349;28;20220;-77
2022/09/06 08:12:18;;;;;;;4.70;4.28;;;;;;;25.40;52.30;95257.25;4993696;28;20189;-77
2022/09/06 08:14:46;;;;;;;5.13;4.63;;;;;;;25.53;52.44;95252.69;4992478;28;20588;-77
2022/09/06 08:17:13;;;;;;;7.35;4.50;;;;;;;25.72;51.82;95266.59;4993498;28;20185;-78
2022/09/06 08:19:40;;;;;;;5.97;4.68;;;;;;;26.01;51.97;95299.16;4992768;28;20185;-79
2022/09/06 08:22:06;;;;;;;5.93;4.72;;;;;;;26.07;51.87;95299.31;4992705;28;20200;-77
2022/09/06 08:24:34;;;;;;;6.82;5.15;;;;;;;25.96;52.01;95291.16;4992599;28;20220;-76
2022/09/06 08:27:01;;;;;;;10.40;5.22;;;;;;;26.03;51.57;95291.06;4984899;28;20185;-78
2022/09/06 08:29:28;;;;;;;8.63;4.72;;;;;;;26.12;51.80;95287.16;4992110;28;20684;-78
2022/09/06 08:31:56;;;;;;;8.45;4.88;;;;;;;26.24;51.57;95288.00;4992463;28;20189;-78
2022/09/06 08:34:23;;;;;;;9.55;4.57;;;;;;;26.32;50.98;95286.91;4991951;28;20232;-78
2022/09/06 08:36:50;;;;;;;8.68;4.88;;;;;;;26.21;50.10;95267.47;4992237;28;20204;-78
2022/09/06 08:39:17;;;;;;;9.52;4.88;;;;;;;26.33;50.46;95279.81;4992336;28;20197;-78
2022/09/06 08:41:50;;;;;;;5.53;4.53;;;;;;;26.39;51.36;95273.72;4992285;28;20641;-78
2022/09/06 08:44:20;;;;;;;7.38;5.22;;;;;;;26.46;50.27;95277.06;4992097;28;20193;-77
2022/09/06 08:46:55;;;;;;;9.65;5.32;;;;;;;26.49;49.60;95277.41;4992279;28;20283;-77
2022/09/06 08:49:25;;;;;;;5.65;4.57;;;;;;;26.50;50.05;95267.72;4992280;28;20197;-77
2022/09/06 08:52:13;;;;;;;6.57;4.47;;;;;;;26.49;50.21;95272.19;4992469;28;20200;-77
2022/09/06 08:54:46;;;;;;;4.75;4.35;;;;;;;26.40;50.36;95263.00;4991749;28;20213;-78
2022/09/06 08:57:26;;;;;;;5.28;4.78;;;;;;;26.25;50.60;95239.78;4992384;28;20197;-79
2022/09/06 08:59:59;;;;;;;5.78;5.07;;;;;;;26.37;50.13;95260.00;4992116;28;20197;-79
2022/09/06 09:02:26;;;;;;;6.78;4.80;;;;;;;26.40;50.73;95251.69;4992010;28;20588;-78
2022/09/06 09:04:58;;;;;;;5.78;4.82;;;;;;;26.35;49.98;95228.75;4991969;28;20203;-78
2022/09/06 09:07:38;;;;;;;5.47;4.53;;;;;;;26.52;47.85;95245.50;4991698;28;20193;-78
2022/09/06 09:10:09;;;;;;;8.07;5.13;;;;;;;26.43;50.06;95241.56;4984419;28;20201;-76
2022/09/06 09:12:43;;;;;;;5.47;4.80;;;;;;;26.46;49.22;95237.72;4991859;28;20275;-78
2022/09/06 09:15:14;;;;;;;6.32;5.20;;;;;;;26.44;49.31;95242.41;4991209;28;20244;-78
2022/09/06 09:17:42;;;;;;;7.78;5.10;;;;;;;26.32;48.65;95212.66;4991677;28;20192;-78
2022/09/06 09:20:11;;;;;;;6.50;4.80;;;;;;;26.34;48.00;95216.69;4991329;28;20649;-77
2022/09/06 09:22:39;;;;;;;6.75;4.30;;;;;;;26.27;47.50;95206.25;4991491;28;20190;-77
2022/09/06 09:25:08;;;;;;;5.63;4.30;;;;;;;26.38;47.42;95223.09;4990658;28;20197;-78
2022/09/06 09:27:36;;;;;;;6.72;4.50;;;;;;;26.28;47.88;95228.03;4992465;28;20223;-77
2022/09/06 09:30:06;;;;;;;5.43;4.93;;;;;;;26.24;48.62;95226.88;4991187;28;20203;-79
2022/09/06 09:32:35;;;;;;;5.63;4.35;;;;;;;26.23;48.37;95220.84;4991103;28;20707;-77
2022/09/06 09:35:22;;;;;;;8.27;4.80;;;;;;;26.04;48.11;95216.69;4990845;28;20326;-77
2022/09/06 09:37:57;;;;;;;5.28;4.78;;;;;;;25.99;48.59;95206.84;4991531;28;20185;-77
2022/09/06 09:40:33;;;;;;;7.40;5.57;;;;;;;25.63;49.79;95193.75;4991190;28;20205;-77
2022/09/06 09:43:17;;;;;;;5.32;4.63;;;;;;;25.87;49.22;95208.63;4990759;28;20185;-77
2022/09/06 09:45:45;;;;;;;9.20;5.00;;;;;;;25.80;49.33;95207.09;4973456;28;20590;-77
2022/09/06 09:48:21;;;;;;;7.38;5.47;;;;;;;25.58;49.95;95197.00;4990735;28;20190;-78
2022/09/06 09:50:49;;;;;;;6.13;4.40;;;;;;;25.75;48.03;95203.28;4991059;28;20197;-77
2022/09/06 09:53:20;;;;;;;4.95;4.55;;;;;;;25.61;48.68;95187.94;4990743;28;20687;-78
2022/09/06 09:55:47;;;;;;;5.47;4.43;;;;;;;25.67;49.22;95206.19;4990770;28;21081;-79
2022/09/06 09:58:31;;;;;;;6.10;4.70;;;;;;;25.61;48.99;95196.59;4990350;28;20197;-77
2022/09/06 10:01:16;;;;;;;5.57;4.47;;;;;;;25.61;49.41;95190.56;4990890;28;20181;-78
2022/09/06 10:03:43;;;;;;;4.75;4.22;;;;;;;25.58;49.29;95172.66;4990716;28;20200;-79
2022/09/06 10:06:13;;;;;;;5.25;4.50;;;;;;;25.71;48.94;95182.97;4990473;28;20189;-81
2022/09/06 10:08:43;;;;;;;6.03;4.68;;;;;;;25.77;48.83;95187.34;4990463;28;20204;-79
2022/09/06 10:11:15;;;;;;;5.18;4.68;;;;;;;25.46;48.88;95130.66;4990780;28;20261;-78
2022/09/06 10:13:42;;;;;;;6.07;4.35;;;;;;;25.68;47.88;95183.41;4990139;28;20200;-77
2022/09/06 10:16:10;;;;;;;4.75;3.78;;;;;;;25.74;47.48;95180.72;4991400;28;20193;-78
2022/09/06 10:18:39;;;;;;;4.03;3.63;;;;;;;25.65;48.30;95182.03;4990113;28;20192;-76
2022/09/06 10:21:09;;;;;;;4.63;3.90;;;;;;;25.41;48.53;95123.47;4990623;28;20288;-79
2022/09/06 10:24:03;;;;;;;4.85;4.45;;;;;;;25.75;48.64;95173.66;4990042;28;20196;-77
2022/09/06 10:26:39;;;;;;;4.15;3.80;;;;;;;25.80;48.37;95168.56;4990082;28;20193;-79
2022/09/06 10:29:08;;;;;;;4.68;4.28;;;;;;;25.77;48.53;95164.56;4990568;28;20189;-80
2022/09/06 10:31:46;;;;;;;4.22;3.85;;;;;;;25.88;47.15;95173.50;4990122;28;20197;-77
2022/09/06 10:34:48;;;;;;;4.78;3.70;;;;;;;25.82;46.76;95160.47;4990372;28;20248;-80
2022/09/06 10:37:28;;;;;;;4.45;4.05;;;;;;;25.84;47.15;95163.69;4929572;29;20732;-79
2022/09/06 10:40:05;;;;;;;3.92;3.63;;;;;;;25.89;46.90;95163.81;4930065;29;20218;-79
2022/09/06 10:42:39;;;;;;;4.22;3.90;;;;;;;25.84;46.97;95154.00;4930249;29;20195;-81
2022/09/06 10:45:21;;;;;;;3.90;3.55;;;;;;;25.88;44.89;95160.41;4930208;29;20226;-78
2022/09/06 10:48:00;;;;;;;4.72;4.32;;;;;;;25.69;45.97;95153.56;4930374;29;20654;-79
2022/09/06 10:50:34;;;;;;;3.90;3.60;;;;;;;25.44;45.81;95106.53;4931241;29;20255;-81
2022/09/06 10:53:12;;;;;;;4.75;4.35;;;;;;;25.75;46.21;95161.34;4931116;29;20265;-80
2022/09/06 10:55:46;;;;;;;4.28;3.88;;;;;;;25.56;46.48;95161.56;4930772;29;20234;-80
2022/09/06 10:58:20;;;;;;;4.38;3.97;;;;;;;25.48;46.51;95139.91;4931387;29;20218;-78
2022/09/06 11:00:51;;;;;;;5.82;3.47;;;;;;;25.62;46.23;95155.47;4931445;29;20194;-80
2022/09/06 11:03:27;;;;;;;5.43;4.00;;;;;;;25.60;45.33;95126.84;4936279;29;20206;-78
2022/09/06 11:05:58;;;;;;;3.38;3.10;;;;;;;25.67;45.78;95127.59;4932590;29;20198;-79
2022/09/06 11:08:29;;;;;;;3.97;3.60;;;;;;;25.65;43.98;95113.91;4939053;29;20199;-83
2022/09/06 11:11:09;;;;;;;4.43;3.50;;;;;;;25.86;44.52;95136.22;4952147;29;20254;-79
2022/09/06 11:13:36;;;;;;;4.00;3.70;;;;;;;25.75;43.73;95121.25;4956750;28;20203;-79
2022/09/06 11:16:09;;;;;;;4.53;4.13;;;;;;;25.87;44.33;95129.19;5000187;28;20248;-79
2022/09/06 11:18:41;;;;;;;5.55;3.88;;;;;;;25.86;43.51;95120.50;4990321;28;20201;-81
2022/09/06 11:21:41;;;;;;;4.43;3.25;;;;;;;25.90;44.36;95123.50;4990227;28;20200;-80
2022/09/06 11:24:12;;;;;;;4.13;3.58;;;;;;;26.00;43.18;95142.91;4985446;28;20192;-81
2022/09/06 11:27:00;;;;;;;4.90;4.22;;;;;;;26.00;43.69;95135.06;4989800;28;20197;-77
2022/09/06 11:29:30;;;;;;;4.10;3.67;;;;;;;26.03;42.84;95141.66;4990112;28;20201;-81
2022/09/06 11:32:00;;;;;;;2.88;2.67;;;;;;;26.05;42.10;95128.34;4990019;28;20683;-80
2022/09/06 11:34:30;;;;;;;2.95;2.75;;;;;;;26.09;41.76;95134.75;4989902;28;20231;-80
2022/09/06 11:36:58;;;;;;;3.42;3.13;;;;;;;25.85;41.99;95097.94;4989656;28;20267;-78
2022/09/06 11:39:29;;;;;;;4.93;3.15;;;;;;;25.86;42.27;95122.34;4989719;28;20212;-80
2022/09/06 11:41:58;;;;;;;3.33;3.03;;;;;;;25.96;40.44;95126.03;4989670;28;20216;-78
2022/09/06 11:44:53;;;;;;;3.30;2.88;;;;;;;25.95;40.30;95116.56;4989811;28;20785;-79
2022/09/06 11:47:36;;;;;;;3.45;3.15;;;;;;;25.66;41.60;95114.72;4989915;28;20181;-77
2022/09/06 11:50:33;;;;;;;3.13;2.65;;;;;;;25.82;41.45;95114.13;4993736;28;20200;-79